Time;durP1;ratioP1;P1;durP2;ratioP2;P2;SDS_P1;SDS_P2;PMS_P1;PMS_P2;Temp;Humidity;BMP_temperature;BMP_pressure;BME280_temperature;BME280_humidity;BME280_pressure;Samples;Min_cycle;Max_cycle;Signal;HPM_P1;HPM_P2
2023/10/17 00:03:37;;;;;;;43.10;20.30;;;;;;;1.85;100.00;101076.77;223473;1264;140928;-82
2023/10/17 00:08:38;;;;;;;40.20;18.30;;;;;;;1.82;100.00;101083.02;224140;1264;139663;-82
2023/10/17 00:13:38;;;;;;;37.40;20.40;;;;;;;1.76;100.00;101084.29;223583;1268;140158;-82
2023/10/17 00:18:39;;;;;;;40.60;21.60;;;;;;;1.70;100.00;101085.67;224159;1264;139315;-81
2023/10/17 00:23:40;;;;;;;45.00;21.50;;;;;;;1.64;100.00;101087.25;223716;1266;140153;-81
2023/10/17 00:28:40;;;;;;;39.00;19.90;;;;;;;1.61;100.00;101085.08;224029;1268;139364;-81
2023/10/17 00:33:41;;;;;;;38.40;19.70;;;;;;;1.58;100.00;101086.30;223627;1268;140217;-81
2023/10/17 00:38:45;;;;;;;38.60;20.20;;;;;;;1.57;100.00;101085.50;224136;1267;139182;-82
2023/10/17 00:43:46;;;;;;;49.80;24.10;;;;;;;1.54;100.00;101085.57;223608;1268;140229;-82
2023/10/17 00:48:49;;;;;;;50.20;24.80;;;;;;;1.50;100.00;101077.94;224134;1265;139480;-81
2023/10/17 00:53:50;;;;;;;41.80;20.60;;;;;;;1.47;100.00;101075.56;223669;1268;140598;-81
2023/10/17 00:58:51;;;;;;;47.00;23.30;;;;;;;1.41;100.00;101081.37;224266;1267;97318;-81
2023/10/17 01:03:52;;;;;;;36.70;19.00;;;;;;;1.39;100.00;101079.13;223548;1268;139650;-82
2023/10/17 01:08:53;;;;;;;35.30;19.40;;;;;;;1.33;100.00;101080.05;224154;1264;139005;-81
2023/10/17 01:13:54;;;;;;;44.30;20.00;;;;;;;1.32;100.00;101075.70;223608;1264;140211;-81
2023/10/17 01:18:55;;;;;;;44.10;20.00;;;;;;;1.28;100.00;101078.03;224117;1268;139090;-81
2023/10/17 01:23:56;;;;;;;42.30;18.70;;;;;;;1.24;100.00;101073.70;223596;1264;139903;-81
2023/10/17 01:28:59;;;;;;;35.90;17.70;;;;;;;1.21;100.00;101074.63;224237;1268;95897;-82
2023/10/17 01:33:59;;;;;;;38.00;17.90;;;;;;;1.20;100.00;101075.19;223597;1264;140076;-82
2023/10/17 01:39:00;;;;;;;32.40;16.70;;;;;;;1.17;100.00;101077.33;224126;1264;139488;-82
2023/10/17 01:44:01;;;;;;;36.80;18.60;;;;;;;1.11;100.00;101075.52;223547;1265;139975;-82
2023/10/17 01:49:10;;;;;;;47.40;21.60;;;;;;;1.09;100.00;101078.48;224084;1264;138902;-82
2023/10/17 01:54:16;;;;;;;48.60;21.60;;;;;;;1.09;100.00;101074.83;223655;1268;138979;-81
2023/10/17 01:59:26;;;;;;;45.10;22.80;;;;;;;1.08;100.00;101076.45;223637;1264;140205;-81
2023/10/17 02:04:26;;;;;;;41.90;21.10;;;;;;;1.04;100.00;101081.41;224022;1264;139405;-82
2023/10/17 02:14:27;;;;;;;35.30;18.00;;;;;;;1.00;100.00;101077.30;224153;1264;138955;-81
2023/10/17 02:19:31;;;;;;;42.40;19.60;;;;;;;0.95;100.00;101079.44;223609;1264;140837;-81
2023/10/17 02:24:32;;;;;;;54.10;23.00;;;;;;;0.96;100.00;101083.27;224079;1264;139123;-81
2023/10/17 02:29:38;;;;;;;59.70;21.70;;;;;;;0.94;100.00;101086.17;223694;1264;140182;-81
2023/10/17 02:34:40;;;;;;;;;;;;;;;0.94;100.00;101084.73;224096;1264;138783;-81
2023/10/17 02:39:41;;;;;;;43.80;19.10;;;;;;;0.94;100.00;101084.71;223565;1264;126362;-81
2023/10/17 02:44:43;;;;;;;51.20;20.90;;;;;;;0.95;100.00;101090.58;224111;1264;139412;-81
2023/10/17 02:49:45;;;;;;;43.60;19.20;;;;;;;0.94;100.00;101097.02;223559;1264;140445;-81
2023/10/17 02:54:56;;;;;;;50.20;19.20;;;;;;;0.94;100.00;101099.95;224138;1264;139439;-81
2023/10/17 03:00:07;;;;;;;44.60;19.60;;;;;;;0.93;100.00;101098.73;223520;1264;140985;-82
2023/10/17 03:05:11;;;;;;;40.10;16.20;;;;;;;0.94;100.00;101097.30;224151;1264;105305;-82
2023/10/17 03:10:20;;;;;;;50.90;18.90;;;;;;;0.94;100.00;101099.88;223534;1264;141005;-81
2023/10/17 03:15:23;;;;;;;45.10;18.30;;;;;;;0.94;100.00;101099.02;224091;1264;139961;-81
2023/10/17 03:20:36;;;;;;;61.20;20.60;;;;;;;0.95;100.00;101100.54;223539;1264;140633;-81
2023/10/17 03:25:40;;;;;;;59.00;20.90;;;;;;;0.96;100.00;101099.64;224039;1264;139587;-81
2023/10/17 03:30:40;;;;;;;52.00;19.60;;;;;;;0.97;100.00;101096.65;223580;1264;140425;-82
2023/10/17 03:41:23;;;;;;;46.20;19.10;;;;;;;0.97;100.00;101096.96;223321;1264;140002;-82
2023/10/17 03:46:27;;;;;;;37.70;16.10;;;;;;;0.99;100.00;101108.95;223895;1264;138906;-81
2023/10/17 03:51:30;;;;;;;39.90;15.90;;;;;;;1.00;100.00;101107.37;223562;1264;140202;-81
2023/10/17 03:56:35;;;;;;;41.90;17.10;;;;;;;1.01;100.00;101105.30;224049;1263;139059;-81
2023/10/17 04:01:36;;;;;;;39.00;17.80;;;;;;;1.02;100.00;101104.36;223503;1264;140171;-82
2023/10/17 04:06:40;;;;;;;54.90;22.60;;;;;;;1.07;100.00;101105.80;224121;1264;139337;-81
2023/10/17 04:11:42;;;;;;;35.40;16.60;;;;;;;1.09;100.00;101099.76;223558;1264;139873;-82
2023/10/17 04:16:48;;;;;;;37.20;15.90;;;;;;;1.10;100.00;101096.58;224066;1264;138830;-82
2023/10/17 04:27:44;;;;;;;43.40;19.60;;;;;;;1.14;100.00;101106.81;224017;1264;139509;-82
2023/10/17 04:32:16;;;;;;;253.00;82.10;;;;;;;1.16;100.00;101104.22;223432;1264;140942;-82
2023/10/17 04:37:16;;;;;;;683.70;179.60;;;;;;;1.19;100.00;101108.52;224019;1264;139237;-82
2023/10/17 04:42:26;;;;;;;1187.80;312.30;;;;;;;1.21;100.00;101106.69;223666;1264;140542;-82
2023/10/17 04:47:29;;;;;;;914.30;245.60;;;;;;;1.21;100.00;101107.02;224210;1264;112104;-82
2023/10/17 04:52:30;;;;;;;279.40;71.40;;;;;;;1.19;100.00;101109.55;223647;1264;140312;-82
2023/10/17 04:57:56;;;;;;;86.30;29.40;;;;;;;1.17;100.00;101115.44;224151;1264;140107;-82
2023/10/17 05:03:13;;;;;;;55.20;20.50;;;;;;;1.17;100.00;101118.30;223552;1264;140203;-82
2023/10/17 05:08:21;;;;;;;49.20;18.80;;;;;;;1.17;100.00;101124.05;224130;1264;139698;-82
2023/10/17 06:17:22;;;;;;;94.80;28.80;;;;;;;1.47;100.00;101186.59;224197;1264;107255;-88
2023/10/17 06:28:20;;;;;;;79.30;28.00;;;;;;;1.62;100.00;101186.76;224052;1264;139811;-86
2023/10/17 06:33:25;;;;;;;64.10;24.20;;;;;;;1.71;100.00;101188.42;223452;1264;139956;-87
2023/10/17 06:38:28;;;;;;;57.40;22.50;;;;;;;1.79;100.00;101191.65;224019;1264;138965;-88
2023/10/17 06:43:29;;;;;;;53.20;22.00;;;;;;;1.88;100.00;101191.63;223503;1264;139975;-88
2023/10/17 06:48:32;;;;;;;49.20;19.40;;;;;;;1.97;100.00;101190.16;224112;1264;139447;-89
2023/10/17 06:53:34;;;;;;;35.70;15.70;;;;;;;2.05;100.00;101200.30;223716;1264;140276;-90
2023/10/17 06:58:34;;;;;;;32.00;16.20;;;;;;;2.15;100.00;101200.75;224173;1264;140158;-88
2023/10/17 07:03:35;;;;;;;33.80;17.10;;;;;;;2.26;100.00;101204.77;223597;1264;139781;-88
2023/10/17 07:08:36;;;;;;;34.40;18.10;;;;;;;2.39;100.00;101207.75;223992;1264;139299;-87
2023/10/17 07:24:43;;;;;;;26.20;15.10;;;;;;;2.82;100.00;101208.81;223754;1264;361665;-88
2023/10/17 07:29:52;;;;;;;35.60;18.30;;;;;;;3.02;100.00;101207.91;223591;1264;140273;-88
2023/10/17 07:34:53;;;;;;;35.80;16.80;;;;;;;3.28;100.00;101206.56;223905;1263;96012;-88
2023/10/17 07:45:15;;;;;;;33.00;16.90;;;;;;;3.75;100.00;101216.12;224025;1264;138981;-88
2023/10/17 07:50:16;;;;;;;29.10;16.30;;;;;;;3.98;100.00;101217.48;223448;1264;140502;-88
2023/10/17 07:55:23;;;;;;;29.60;15.50;;;;;;;4.20;100.00;101218.64;224123;1264;139736;-89
2023/10/17 08:00:26;;;;;;;30.50;15.90;;;;;;;4.44;100.00;101222.95;223541;1264;140477;-90
2023/10/17 08:05:36;;;;;;;29.30;15.00;;;;;;;4.69;100.00;101216.36;224303;1264;95921;-90
2023/10/17 08:10:38;;;;;;;34.50;15.80;;;;;;;4.98;100.00;101217.02;223423;1264;140090;-89
2023/10/17 08:15:46;;;;;;;29.40;12.70;;;;;;;5.26;100.00;101219.31;223995;1264;139204;-89
2023/10/17 08:26:10;;;;;;;24.10;10.70;;;;;;;6.03;100.00;101218.08;224045;1265;138965;-89
2023/10/17 08:31:27;;;;;;;20.40;10.00;;;;;;;6.45;100.00;101217.02;223482;1265;140506;-89
2023/10/17 08:36:53;;;;;;;;;;;;;;;6.91;100.00;101213.84;223870;1264;303642;-89
2023/10/17 08:41:57;;;;;;;25.40;16.90;;;;;;;7.46;100.00;101202.79;223553;1265;126873;-88
2023/10/17 08:46:59;;;;;;;26.10;22.60;;;;;;;8.09;100.00;101202.20;224131;1265;95866;-89
2023/10/17 08:51:59;;;;;;;15.20;8.80;;;;;;;8.63;100.00;101199.35;223349;1264;140195;-90
2023/10/17 08:57:01;;;;;;;17.30;6.80;;;;;;;9.15;100.00;101199.13;224154;1264;140270;-89
2023/10/17 09:02:03;;;;;;;17.60;5.40;;;;;;;9.77;100.00;101204.79;223410;1264;140348;-89
2023/10/17 09:07:08;;;;;;;12.00;3.90;;;;;;;10.61;100.00;101206.98;224179;1264;139398;-89
2023/10/17 09:12:19;;;;;;;12.00;4.00;;;;;;;11.45;100.00;101206.15;223548;1264;141036;-90
2023/10/17 09:22:26;;;;;;;12.70;3.60;;;;;;;12.83;99.55;101196.89;223464;1264;140319;-89
2023/10/17 09:27:31;;;;;;;9.10;3.60;;;;;;;13.28;98.59;101196.50;224370;1264;139436;-88
2023/10/17 09:32:37;;;;;;;9.40;2.50;;;;;;;13.96;96.16;101190.91;223578;1264;140005;-87
2023/10/17 09:37:41;;;;;;;8.10;2.50;;;;;;;14.52;92.79;101190.77;224154;1264;139412;-88
2023/10/17 09:42:46;;;;;;;8.40;2.70;;;;;;;14.89;88.64;101188.00;223484;1264;139856;-89
2023/10/17 09:47:53;;;;;;;10.10;2.80;;;;;;;15.29;85.18;101187.27;224123;1264;96342;-88
2023/10/17 09:52:54;;;;;;;7.40;2.20;;;;;;;15.49;80.90;101188.94;223726;1264;139614;-88
2023/10/17 09:58:03;;;;;;;9.40;2.70;;;;;;;15.46;77.93;101185.13;224275;1264;139239;-89
2023/10/17 10:03:05;;;;;;;6.80;2.30;;;;;;;15.62;77.26;101182.73;223633;1264;139481;-89
2023/10/17 10:08:34;;;;;;;6.20;1.70;;;;;;;15.66;75.26;101180.05;224274;1264;138220;-88
2023/10/17 10:14:01;;;;;;;9.90;3.40;;;;;;;15.53;71.72;101177.30;223625;1263;139162;-91
2023/10/17 10:19:03;;;;;;;10.00;4.10;;;;;;;15.53;71.10;101172.88;224170;1264;139139;-89
2023/10/17 10:24:14;;;;;;;5.30;1.90;;;;;;;15.43;69.87;101164.91;223706;1264;139228;-89
2023/10/17 10:29:23;;;;;;;6.90;2.40;;;;;;;15.27;68.08;101165.39;223708;1264;139661;-89
2023/10/17 10:34:23;;;;;;;6.80;1.80;;;;;;;15.17;68.61;101164.48;224169;1267;139332;-89
2023/10/17 10:39:24;;;;;;;8.20;1.60;;;;;;;15.09;68.31;101163.41;223693;1264;139886;-89
2023/10/17 10:44:25;;;;;;;5.60;1.50;;;;;;;15.13;68.83;101154.94;224203;1264;138673;-88
2023/10/17 10:49:30;;;;;;;6.40;2.10;;;;;;;15.06;67.84;101153.80;223931;1264;139723;-90
2023/10/17 10:54:50;;;;;;;7.30;2.30;;;;;;;14.88;68.46;101153.80;224173;1264;138075;-89
2023/10/17 10:59:52;;;;;;;6.10;2.30;;;;;;;14.82;68.82;101152.82;223718;1264;139188;-89
2023/10/17 11:04:56;;;;;;;9.30;3.10;;;;;;;14.61;68.51;101142.80;224063;1264;138373;-89
2023/10/17 11:10:06;;;;;;;7.30;2.50;;;;;;;14.46;69.22;101132.17;223420;1266;139296;-89
2023/10/17 11:15:14;;;;;;;16.50;2.80;;;;;;;14.25;67.12;101129.10;224139;1264;138763;-88
2023/10/17 11:20:17;;;;;;;9.40;2.50;;;;;;;13.96;68.81;101124.42;223619;1264;139649;-90
2023/10/17 11:25:27;;;;;;;20.60;7.30;;;;;;;13.83;68.53;101120.59;224248;1264;139357;-90
2023/10/17 11:30:35;;;;;;;8.60;3.20;;;;;;;13.57;67.35;101117.96;223631;1265;139697;-89
2023/10/17 11:35:45;;;;;;;9.70;2.40;;;;;;;13.23;67.46;101109.39;224291;1266;107532;-88
2023/10/17 11:40:48;;;;;;;7.30;2.20;;;;;;;13.01;67.52;101107.94;223634;1266;139157;-88
2023/10/17 11:45:48;;;;;;;6.90;2.00;;;;;;;12.82;67.95;101101.36;224005;1265;139184;-89
2023/10/17 11:50:50;;;;;;;5.50;1.70;;;;;;;12.68;68.04;101089.98;223703;1265;139500;-90
2023/10/17 11:55:50;;;;;;;7.50;2.20;;;;;;;12.52;68.40;101080.70;224073;1266;138237;-89
2023/10/17 12:00:51;;;;;;;9.70;2.30;;;;;;;12.38;68.42;101078.36;223657;1264;139509;-89
2023/10/17 12:05:53;;;;;;;6.20;1.30;;;;;;;12.27;68.85;101074.65;224299;1264;96631;-89
2023/10/17 12:10:54;;;;;;;6.80;1.40;;;;;;;12.12;69.08;101066.85;223854;1264;139024;-89
2023/10/17 12:15:56;;;;;;;8.10;1.70;;;;;;;11.98;69.27;101066.42;224318;1264;139186;-89
2023/10/17 12:21:01;;;;;;;8.40;1.40;;;;;;;11.86;68.75;101062.83;223630;1266;139444;-90
2023/10/17 12:26:01;;;;;;;7.30;1.20;;;;;;;11.76;69.46;101058.34;224186;1268;139580;-88
2023/10/17 12:31:02;;;;;;;5.90;1.50;;;;;;;11.70;69.13;101050.59;223614;1265;139216;-89
2023/10/17 12:36:06;;;;;;;8.10;2.00;;;;;;;11.65;68.74;101044.36;224244;1266;138790;-87
2023/10/17 12:41:09;;;;;;;5.50;1.50;;;;;;;11.63;68.76;101040.71;223794;1266;139345;-88
2023/10/17 12:46:10;;;;;;;8.30;1.80;;;;;;;11.67;68.12;101042.98;223994;1266;138675;-88
2023/10/17 12:51:11;;;;;;;4.90;1.30;;;;;;;11.69;66.85;101036.80;223716;1264;139833;-88
2023/10/17 12:56:12;;;;;;;8.00;1.50;;;;;;;11.74;66.94;101030.17;224020;1264;138773;-88
2023/10/17 13:01:12;;;;;;;5.10;1.20;;;;;;;11.89;66.83;101024.73;223709;1265;139479;-86
2023/10/17 13:06:14;;;;;;;7.50;1.60;;;;;;;12.09;66.97;101027.65;224248;1266;138806;-88
2023/10/17 13:11:14;;;;;;;5.10;1.40;;;;;;;12.22;66.74;101032.86;223748;1266;139803;-89
2023/10/17 13:16:15;;;;;;;6.40;1.70;;;;;;;12.30;67.43;101026.98;224258;1265;138610;-89
2023/10/17 13:21:15;;;;;;;8.10;1.90;;;;;;;12.33;68.11;101033.12;223754;1264;139260;-89
2023/10/17 13:26:19;;;;;;;7.90;2.40;;;;;;;12.37;69.14;101035.38;224227;1264;138665;-89
2023/10/17 13:31:20;;;;;;;9.90;3.20;;;;;;;12.44;69.19;101037.91;223641;1264;139150;-88
2023/10/17 13:36:21;;;;;;;7.20;2.30;;;;;;;12.45;68.38;101033.96;224225;1264;138415;-89
2023/10/17 13:41:23;;;;;;;14.60;2.30;;;;;;;12.36;68.48;101021.08;223777;1264;139554;-89
2023/10/17 13:46:24;;;;;;;8.40;1.90;;;;;;;12.30;67.94;101012.48;224234;1264;138288;-89
2023/10/17 13:51:34;;;;;;;6.10;1.90;;;;;;;12.25;70.44;101012.96;223657;1265;139930;-88
2023/10/17 13:56:34;;;;;;;6.80;1.90;;;;;;;12.16;71.68;101010.24;224161;1264;138146;-89
2023/10/17 14:01:46;;;;;;;7.00;1.70;;;;;;;12.11;71.49;101010.33;223705;1264;139293;-88
2023/10/17 14:06:48;;;;;;;7.00;1.70;;;;;;;12.08;70.96;101013.14;223958;1264;138088;-89
2023/10/17 14:11:50;;;;;;;13.30;1.80;;;;;;;12.05;70.72;100998.50;223672;1264;139236;-89
2023/10/17 14:16:52;;;;;;;6.30;1.30;;;;;;;12.02;71.05;100987.27;224161;1264;138295;-88
2023/10/17 14:22:05;;;;;;;8.30;1.90;;;;;;;11.99;71.56;100981.77;223539;1264;139341;-88
2023/10/17 14:27:11;;;;;;;4.20;1.90;;;;;;;11.93;71.57;100988.63;224087;1264;138114;-89
2023/10/17 14:32:15;;;;;;;6.70;1.80;;;;;;;11.86;72.06;100989.77;223515;1264;141282;-88
2023/10/17 14:37:17;;;;;;;10.70;2.10;;;;;;;11.77;70.87;100986.27;224178;1264;138128;-88
2023/10/17 14:42:18;;;;;;;10.70;2.30;;;;;;;11.72;71.11;100979.48;223396;1265;139635;-88
2023/10/17 14:47:18;;;;;;;8.90;2.60;;;;;;;11.63;69.62;100981.79;224118;1265;96253;-88
2023/10/17 14:52:19;;;;;;;7.00;2.10;;;;;;;11.53;69.84;100978.22;223599;1264;139283;-88
2023/10/17 14:57:20;;;;;;;5.50;1.70;;;;;;;11.42;70.74;100977.72;224206;1264;138119;-88
2023/10/17 15:02:21;;;;;;;7.30;2.30;;;;;;;11.38;70.23;100973.08;223492;1264;139804;-88
2023/10/17 15:07:21;;;;;;;6.00;1.60;;;;;;;11.32;70.52;100971.73;224077;1266;138244;-88
2023/10/17 15:12:22;;;;;;;5.00;1.70;;;;;;;11.24;70.33;100971.20;223418;1268;139748;-88
2023/10/17 15:17:22;;;;;;;5.20;2.00;;;;;;;11.16;72.07;100970.66;224145;1267;104085;-88
2023/10/17 15:22:22;;;;;;;6.30;2.10;;;;;;;11.06;72.74;100971.61;223489;1264;139348;-89
2023/10/17 15:27:23;;;;;;;5.90;2.10;;;;;;;10.95;73.58;100976.83;224006;1265;139585;-88
2023/10/17 15:32:23;;;;;;;6.40;3.00;;;;;;;10.88;74.20;100977.71;223600;1264;139498;-88
2023/10/17 15:37:24;;;;;;;8.30;3.20;;;;;;;10.82;74.45;100978.30;224180;1265;138117;-88
2023/10/17 15:42:26;;;;;;;9.10;3.60;;;;;;;10.74;73.98;100975.88;223645;1264;140005;-88
2023/10/17 15:47:27;;;;;;;6.60;3.20;;;;;;;10.64;74.56;100975.84;224179;1268;104751;-88
2023/10/17 15:52:27;;;;;;;9.60;3.90;;;;;;;10.51;75.04;100982.34;223602;1264;139529;-87
2023/10/17 15:57:28;;;;;;;12.00;4.80;;;;;;;10.32;75.75;100983.92;223954;1264;139683;-88
2023/10/17 16:02:31;;;;;;;12.30;5.50;;;;;;;10.08;76.26;100983.30;223546;1264;140586;-87
2023/10/17 16:07:33;;;;;;;15.90;8.30;;;;;;;9.85;77.02;100978.37;223992;1268;140307;-88
2023/10/17 16:12:33;;;;;;;16.80;8.10;;;;;;;9.64;77.16;100983.08;223359;1265;139838;-88
2023/10/17 16:17:35;;;;;;;20.10;9.40;;;;;;;9.41;78.02;100979.05;224274;1266;96145;-87
2023/10/17 16:22:36;;;;;;;27.90;13.70;;;;;;;9.21;78.31;100977.29;223433;1263;139629;-87
2023/10/17 16:27:36;;;;;;;23.50;13.40;;;;;;;9.04;79.36;100981.96;224134;1264;139450;-89
2023/10/17 16:32:37;;;;;;;24.00;12.60;;;;;;;8.96;78.85;100991.32;223575;1264;139756;-89
2023/10/17 16:37:37;;;;;;;16.30;9.20;;;;;;;8.77;79.93;100993.30;224133;1264;138861;-89
2023/10/17 16:42:38;;;;;;;16.20;8.40;;;;;;;8.50;80.47;100998.67;223585;1268;139931;-89
2023/10/17 16:47:39;;;;;;;22.00;8.70;;;;;;;8.26;81.13;100995.79;224318;1268;95839;-89
2023/10/17 16:52:40;;;;;;;21.30;10.20;;;;;;;8.09;82.19;101001.90;223626;1268;139711;-88
2023/10/17 16:57:41;;;;;;;22.20;10.70;;;;;;;7.99;82.91;101002.47;224075;1266;139026;-89
2023/10/17 17:02:43;;;;;;;24.00;10.70;;;;;;;7.85;83.58;101005.52;223278;1266;140045;-88
2023/10/17 17:07:43;;;;;;;22.70;11.70;;;;;;;7.72;84.65;101003.51;224019;1268;139463;-89
2023/10/17 17:12:47;;;;;;;26.50;12.80;;;;;;;7.70;85.21;101002.71;223542;1264;140248;-89
2023/10/17 17:17:48;;;;;;;24.40;11.90;;;;;;;7.56;85.89;101000.70;224202;1268;112115;-89
2023/10/17 17:22:48;;;;;;;25.10;11.70;;;;;;;7.50;86.46;100997.24;223390;1264;139920;-88
2023/10/17 17:27:49;;;;;;;28.10;14.60;;;;;;;7.50;87.18;100994.89;224075;1264;139824;-88
2023/10/17 17:32:51;;;;;;;28.10;15.10;;;;;;;7.50;87.54;100990.27;223591;1265;139800;-88
2023/10/17 17:37:54;;;;;;;33.50;19.40;;;;;;;7.45;88.16;100984.55;224158;1264;140076;-88
2023/10/17 17:42:54;;;;;;;39.80;21.90;;;;;;;7.41;88.62;100984.58;223416;1264;139792;-88
2023/10/17 17:47:54;;;;;;;42.50;20.70;;;;;;;7.39;88.65;100991.77;224302;1265;95894;-89
2023/10/17 17:52:55;;;;;;;35.40;17.50;;;;;;;7.41;88.76;100987.38;223756;1264;140709;-89
2023/10/17 17:57:55;;;;;;;35.90;16.40;;;;;;;7.40;88.84;100982.42;224152;1264;139361;-88
2023/10/17 18:02:56;;;;;;;34.70;17.50;;;;;;;7.39;89.29;100973.40;223572;1264;140988;-89
2023/10/17 18:07:56;;;;;;;33.60;18.30;;;;;;;7.30;89.71;100970.92;224148;1264;139109;-89
2023/10/17 18:12:56;;;;;;;48.70;23.10;;;;;;;7.18;89.97;100969.09;223608;1264;141478;-89
2023/10/17 18:17:57;;;;;;;39.90;20.90;;;;;;;7.05;90.29;100964.73;224189;1264;138803;-88
2023/10/17 18:22:58;;;;;;;35.50;19.90;;;;;;;6.92;90.56;100965.16;223744;1264;139427;-89
2023/10/17 18:27:59;;;;;;;47.80;24.00;;;;;;;6.79;90.86;100963.56;224115;1268;138935;-88
2023/10/17 18:32:59;;;;;;;45.50;22.50;;;;;;;6.59;91.04;100956.21;223635;1264;140835;-88
2023/10/17 18:37:59;;;;;;;39.80;20.20;;;;;;;6.40;91.28;100963.55;224005;1264;140214;-89
2023/10/17 18:42:59;;;;;;;39.30;20.00;;;;;;;6.31;91.79;100959.02;223585;1264;139964;-88
2023/10/17 18:48:00;;;;;;;45.90;23.80;;;;;;;6.19;91.93;100950.21;224060;1264;139880;-88
2023/10/17 18:53:01;;;;;;;47.60;26.30;;;;;;;6.11;92.13;100943.52;223646;1264;140286;-88
2023/10/17 18:58:01;;;;;;;48.10;25.40;;;;;;;5.95;92.26;100947.54;224066;1264;138606;-87
2023/10/17 19:03:02;;;;;;;74.60;35.10;;;;;;;5.76;92.79;100954.80;223548;1264;141073;-87
2023/10/17 19:08:03;;;;;;;86.60;41.40;;;;;;;5.63;93.16;100952.59;224119;1264;139956;-88
2023/10/17 19:13:04;;;;;;;101.90;46.40;;;;;;;5.45;93.31;100955.53;223526;1264;140693;-87
2023/10/17 19:18:05;;;;;;;92.60;44.00;;;;;;;5.32;93.65;100956.54;223907;1263;139774;-88
2023/10/17 19:23:06;;;;;;;88.10;42.90;;;;;;;5.18;93.84;100962.61;223525;1264;139692;-87
2023/10/17 19:28:07;;;;;;;76.50;37.50;;;;;;;5.06;94.18;100964.23;223853;1264;138738;-87
2023/10/17 19:33:09;;;;;;;73.10;36.10;;;;;;;4.93;94.48;100961.81;223556;1264;139594;-88
2023/10/17 19:38:10;;;;;;;82.90;38.80;;;;;;;4.84;95.06;100960.62;224064;1264;140083;-86
2023/10/17 19:43:11;;;;;;;71.90;36.20;;;;;;;4.73;95.67;100958.86;223610;1264;139754;-87
2023/10/17 19:48:12;;;;;;;64.50;33.70;;;;;;;4.59;95.59;100954.17;224114;1264;138926;-87
2023/10/17 19:53:12;;;;;;;68.70;33.50;;;;;;;4.48;95.77;100961.03;223724;1264;139948;-87
2023/10/17 19:58:14;;;;;;;67.70;32.20;;;;;;;4.41;96.21;100953.12;224109;1264;139149;-87
2023/10/17 20:03:16;;;;;;;63.30;32.30;;;;;;;4.30;96.26;100948.98;223633;1264;140948;-88
2023/10/17 20:08:16;;;;;;;58.50;30.80;;;;;;;4.18;96.71;100954.08;224046;1264;139410;-88
2023/10/17 20:13:17;;;;;;;54.40;30.90;;;;;;;4.09;97.32;100954.95;223723;1264;139840;-88
2023/10/17 20:18:17;;;;;;;60.60;32.50;;;;;;;4.02;97.55;100950.89;224269;1264;138956;-86
2023/10/17 20:23:18;;;;;;;62.70;35.90;;;;;;;3.94;97.63;100946.95;223789;1264;140300;-87
2023/10/17 20:28:19;;;;;;;54.10;31.70;;;;;;;3.87;97.81;100944.96;224215;1264;138833;-88
2023/10/17 20:33:19;;;;;;;57.90;32.00;;;;;;;3.77;98.23;100930.98;223565;1264;140889;-88
2023/10/17 20:38:20;;;;;;;60.40;33.10;;;;;;;3.66;98.14;100924.57;224061;1264;147420;-87
2023/10/17 20:43:20;;;;;;;54.80;31.30;;;;;;;3.59;98.55;100911.31;223594;1264;140503;-88
2023/10/17 20:48:20;;;;;;;58.10;32.70;;;;;;;3.49;98.60;100921.19;224182;1264;138768;-87
2023/10/17 20:53:21;;;;;;;60.10;33.90;;;;;;;3.44;98.91;100920.24;223736;1264;140567;-88
2023/10/17 20:58:21;;;;;;;59.50;33.80;;;;;;;3.37;98.97;100921.16;223979;1264;139488;-88
2023/10/17 21:03:21;;;;;;;61.40;34.80;;;;;;;3.30;99.60;100911.09;223648;1264;140442;-88
2023/10/17 21:08:22;;;;;;;56.00;33.20;;;;;;;3.23;99.58;100902.85;223992;1264;139143;-88
2023/10/17 21:13:23;;;;;;;57.30;32.00;;;;;;;3.16;99.82;100898.88;223592;1264;141157;-88
2023/10/17 21:18:23;;;;;;;59.40;32.30;;;;;;;3.08;99.49;100903.15;224138;1263;139612;-89
2023/10/17 21:23:24;;;;;;;62.80;32.10;;;;;;;2.99;99.74;100900.85;223519;1264;140661;-89
2023/10/17 21:28:24;;;;;;;55.80;31.30;;;;;;;2.92;99.63;100896.52;224142;1264;139279;-88
2023/10/17 21:33:25;;;;;;;62.80;31.50;;;;;;;2.86;99.71;100893.27;223474;1264;139894;-88
2023/10/17 21:38:25;;;;;;;66.40;33.30;;;;;;;2.80;99.85;100889.16;223977;1264;138849;-89
2023/10/17 21:43:26;;;;;;;58.10;30.30;;;;;;;2.71;100.00;100889.66;223527;1264;140121;-88
2023/10/17 21:48:26;;;;;;;60.50;30.20;;;;;;;2.66;100.00;100884.44;224043;1264;139009;-88
2023/10/17 21:53:27;;;;;;;56.90;30.00;;;;;;;2.63;99.98;100871.95;223533;1264;140426;-87
2023/10/17 21:58:27;;;;;;;63.90;32.80;;;;;;;2.54;100.00;100874.66;224082;1264;138650;-89
2023/10/17 22:03:28;;;;;;;56.60;30.40;;;;;;;2.48;100.00;100882.69;223503;1264;139920;-88
2023/10/17 22:08:29;;;;;;;69.30;35.00;;;;;;;2.41;100.00;100882.95;224021;1264;139403;-82
2023/10/17 22:13:29;;;;;;;78.70;37.10;;;;;;;2.35;100.00;100880.86;223467;1264;140381;-82
2023/10/17 22:18:30;;;;;;;71.40;34.60;;;;;;;2.29;100.00;100873.27;224073;1264;139006;-82
2023/10/17 22:23:34;;;;;;;66.30;32.40;;;;;;;2.22;100.00;100875.07;223644;1264;140487;-82
2023/10/17 22:28:35;;;;;;;61.70;30.50;;;;;;;2.17;100.00;100873.48;223956;1264;139553;-82
2023/10/17 22:33:36;;;;;;;64.30;31.50;;;;;;;2.12;100.00;100876.69;223695;1264;140636;-82
2023/10/17 22:38:36;;;;;;;59.80;29.30;;;;;;;2.06;100.00;100882.05;224223;1268;139742;-82
2023/10/17 22:43:37;;;;;;;61.80;27.50;;;;;;;2.03;100.00;100883.98;223477;1264;139941;-82
2023/10/17 22:48:37;;;;;;;51.30;27.30;;;;;;;1.99;100.00;100880.83;224045;1264;139670;-83
2023/10/17 22:53:38;;;;;;;48.70;25.80;;;;;;;1.95;100.00;100878.26;223637;1264;140503;-83
2023/10/17 22:58:39;;;;;;;53.10;25.70;;;;;;;1.90;100.00;100880.23;224123;1264;139770;-82
2023/10/17 23:03:40;;;;;;;53.90;26.70;;;;;;;1.85;100.00;100878.08;223521;1264;141509;-83
2023/10/17 23:08:40;;;;;;;64.30;31.00;;;;;;;1.81;100.00;100881.27;224097;1264;139550;-83
2023/10/17 23:13:40;;;;;;;70.90;34.30;;;;;;;1.78;100.00;100881.83;223387;1264;140812;-82
2023/10/17 23:18:41;;;;;;;56.50;30.10;;;;;;;1.72;100.00;100873.14;223970;1265;139539;-82
2023/10/17 23:23:41;;;;;;;62.40;29.50;;;;;;;1.62;100.00;100868.11;223457;1264;140539;-82
2023/10/17 23:28:44;;;;;;;69.30;32.90;;;;;;;1.53;100.00;100868.52;223956;1264;139390;-82
2023/10/17 23:33:45;;;;;;;62.30;29.60;;;;;;;1.52;100.00;100862.85;223537;1264;139873;-82
2023/10/17 23:38:47;;;;;;;55.90;29.10;;;;;;;1.48;100.00;100860.52;224043;1264;139811;-82
2023/10/17 23:43:47;;;;;;;61.00;30.50;;;;;;;1.43;100.00;100865.45;223603;1265;141265;-81
2023/10/17 23:48:48;;;;;;;59.90;29.50;;;;;;;1.42;100.00;100857.81;224173;1264;139570;-82
2023/10/17 23:53:48;;;;;;;57.80;28.30;;;;;;;1.38;100.00;100847.73;223482;1264;140485;-82
2023/10/17 23:58:49;;;;;;;53.70;25.70;;;;;;;1.35;100.00;100855.23;224061;1264;138690;-82
